Time;durP1;ratioP1;P1;durP2;ratioP2;P2;SDS_P1;SDS_P2;PMS_P1;PMS_P2;Temp;Humidity;BMP_temperature;BMP_pressure;BME280_temperature;BME280_humidity;BME280_pressure;Samples;Min_cycle;Max_cycle;Signal;HPM_P1;HPM_P2
2023/03/25 00:01:07;;;;;;;5.18;0.90;;;9.50;99.90;;;;;;5071303;28;20052;-82
2023/03/25 00:03:36;;;;;;;7.15;1.23;;;9.40;99.90;;;;;;5095245;28;20044;-81
2023/03/25 00:06:05;;;;;;;9.32;1.30;;;9.40;99.90;;;;;;5082071;28;20075;-84
2023/03/25 00:08:31;;;;;;;5.25;1.17;;;9.40;99.90;;;;;;5064468;28;20044;-82
2023/03/25 00:10:59;;;;;;;9.63;1.33;;;9.50;99.90;;;;;;5067264;28;20052;-81
2023/03/25 00:13:26;;;;;;;7.03;1.25;;;9.60;99.90;;;;;;5095479;28;20553;-84
2023/03/25 00:15:56;;;;;;;9.18;1.20;;;9.60;99.90;;;;;;5065269;28;20048;-82
2023/03/25 00:18:24;;;;;;;6.72;1.40;;;9.40;99.90;;;;;;5089531;28;20040;-82
2023/03/25 00:20:51;;;;;;;5.32;1.40;;;9.20;99.90;;;;;;5085247;28;20747;-83
2023/03/25 00:23:19;;;;;;;8.00;1.88;;;9.10;99.90;;;;;;5068431;28;20067;-81
2023/03/25 00:25:45;;;;;;;9.15;1.60;;;8.90;99.90;;;;;;5067980;28;20040;-82
2023/03/25 00:28:12;;;;;;;8.20;1.35;;;8.80;99.90;;;;;;5050997;28;20090;-82
2023/03/25 00:30:39;;;;;;;7.90;2.35;;;8.80;99.90;;;;;;5075491;28;20063;-81
2023/03/25 00:33:04;;;;;;;8.90;1.40;;;8.80;99.90;;;;;;5087689;28;20485;-82
2023/03/25 00:35:31;;;;;;;11.38;2.15;;;8.80;99.90;;;;;;5057691;28;20053;-82
2023/03/25 00:38:00;;;;;;;7.88;1.20;;;8.70;99.90;;;;;;5087285;28;20165;-81
2023/03/25 00:40:33;;;;;;;5.68;2.10;;;8.80;99.90;;;;;;5071128;28;20435;-84
2023/03/25 00:43:00;;;;;;;9.10;1.30;;;8.80;99.90;;;;;;5063768;28;20494;-82
2023/03/25 00:45:26;;;;;;;9.38;1.40;;;8.90;99.90;;;;;;5066083;28;20045;-82
2023/03/25 00:47:52;;;;;;;9.45;1.42;;;8.90;99.90;;;;;;5068463;28;20050;-82
2023/03/25 00:50:18;;;;;;;7.13;1.55;;;8.60;99.90;;;;;;5074653;28;20048;-82
2023/03/25 00:52:44;;;;;;;9.85;2.03;;;8.40;99.90;;;;;;5062138;28;20472;-81
2023/03/25 00:55:09;;;;;;;8.45;1.70;;;8.30;99.90;;;;;;5073855;28;20040;-81
2023/03/25 00:57:35;;;;;;;9.38;2.03;;;8.20;99.90;;;;;;5038726;28;20075;-83
2023/03/25 01:00:10;;;;;;;10.35;1.90;;;8.10;99.90;;;;;;5053241;28;20436;-81
2023/03/25 01:02:38;;;;;;;13.15;2.10;;;8.10;99.90;;;;;;5065486;28;20465;-84
2023/03/25 01:05:05;;;;;;;8.60;2.45;;;8.00;99.90;;;;;;5069818;28;20036;-81
2023/03/25 01:07:31;;;;;;;15.55;2.47;;;8.00;99.90;;;;;;5068520;28;20040;-87
2023/03/25 01:09:58;;;;;;;14.05;2.30;;;8.00;99.90;;;;;;5080977;28;20666;-81
2023/03/25 01:12:25;;;;;;;7.78;1.70;;;8.00;99.90;;;;;;5083413;28;20075;-83
2023/03/25 01:14:51;;;;;;;13.30;2.45;;;8.00;99.90;;;;;;5076441;28;20194;-81
2023/03/25 01:17:17;;;;;;;11.05;1.92;;;8.00;99.90;;;;;;5059269;28;20072;-81
2023/03/25 01:19:43;;;;;;;11.55;2.30;;;7.90;99.90;;;;;;5067705;28;20075;-81
2023/03/25 01:22:08;;;;;;;11.60;2.03;;;8.00;99.90;;;;;;5036133;28;20899;-82
2023/03/25 01:24:34;;;;;;;17.42;2.10;;;8.00;99.90;;;;;;5090252;28;20050;-84
2023/03/25 01:27:00;;;;;;;16.02;2.47;;;8.00;99.90;;;;;;5071464;28;20048;-82
2023/03/25 01:29:26;;;;;;;9.38;2.05;;;8.00;99.90;;;;;;5071687;28;20043;-81
2023/03/25 01:31:52;;;;;;;13.38;2.20;;;7.90;99.90;;;;;;5053578;28;20048;-83
2023/03/25 01:34:18;;;;;;;13.75;2.45;;;7.90;99.90;;;;;;5068925;28;20040;-83
2023/03/25 01:36:45;;;;;;;16.33;2.33;;;7.90;99.90;;;;;;5043758;28;20511;-83
2023/03/25 01:39:15;;;;;;;14.20;2.05;;;8.00;99.90;;;;;;5072555;28;20048;-82
2023/03/25 01:41:42;;;;;;;10.90;2.28;;;7.90;99.90;;;;;;5065924;28;20494;-83
2023/03/25 01:44:17;;;;;;;7.00;2.10;;;8.00;99.90;;;;;;5070058;28;20047;-81
2023/03/25 01:46:44;;;;;;;11.38;2.67;;;7.90;99.90;;;;;;5077782;28;20424;-82
2023/03/25 01:49:22;;;;;;;10.82;2.00;;;8.00;99.90;;;;;;5072646;28;20075;-81
2023/03/25 01:51:51;;;;;;;9.32;2.08;;;7.90;99.90;;;;;;5059446;28;20132;-81
2023/03/25 01:54:17;;;;;;;17.77;2.40;;;7.90;99.90;;;;;;5074526;28;20052;-82
2023/03/25 01:56:46;;;;;;;15.57;2.42;;;7.90;99.90;;;;;;5057030;28;20173;-81
2023/03/25 01:59:17;;;;;;;11.00;2.50;;;7.90;99.90;;;;;;5065570;28;20044;-81
2023/03/25 02:01:44;;;;;;;15.00;2.03;;;7.90;99.90;;;;;;5062845;28;20048;-82
2023/03/25 02:04:11;;;;;;;11.10;2.45;;;8.00;99.90;;;;;;5068770;28;20031;-81
2023/03/25 02:06:43;;;;;;;18.00;3.15;;;8.00;99.90;;;;;;5064287;28;20055;-84
2023/03/25 02:09:12;;;;;;;14.23;2.60;;;8.00;99.90;;;;;;5068155;28;20109;-82
2023/03/25 02:11:38;;;;;;;13.38;2.13;;;8.00;99.90;;;;;;5053165;28;20074;-81
2023/03/25 02:14:09;;;;;;;13.10;2.30;;;8.00;99.90;;;;;;5064081;28;20104;-81
2023/03/25 02:16:40;;;;;;;20.45;2.90;;;8.00;99.90;;;;;;5073695;28;20459;-82
2023/03/25 02:19:06;;;;;;;16.80;2.08;;;7.90;99.90;;;;;;5082991;28;20497;-82
2023/03/25 02:21:35;;;;;;;14.95;2.80;;;8.00;99.90;;;;;;5074796;28;20695;-81
2023/03/25 02:25:00;;;;;;;19.58;2.72;;;7.90;99.90;;;;;;5081296;28;20036;-82
2023/03/25 02:27:40;;;;;;;16.38;2.30;;;8.00;99.90;;;;;;5031996;28;20468;-82
2023/03/25 02:30:30;;;;;;;10.93;2.63;;;8.00;99.90;;;;;;5071369;28;20058;-82
2023/03/25 02:32:59;;;;;;;15.60;2.60;;;8.00;99.90;;;;;;5074546;28;20125;-84
2023/03/25 02:35:35;;;;;;;12.65;2.80;;;8.10;99.90;;;;;;5067981;28;20048;-82
2023/03/25 02:38:28;;;;;;;14.20;2.38;;;8.00;99.90;;;;;;5076609;28;20047;-83
2023/03/25 02:41:21;;;;;;;17.63;3.30;;;8.00;99.90;;;;;;5081322;28;20117;-81
2023/03/25 02:44:02;;;;;;;13.00;2.55;;;8.00;99.90;;;;;;5063458;28;20040;-84
2023/03/25 02:46:30;;;;;;;17.23;3.00;;;8.00;99.90;;;;;;5070358;28;20040;-81
2023/03/25 02:48:59;;;;;;;21.58;3.08;;;7.90;99.90;;;;;;5081119;28;20054;-81
2023/03/25 02:51:32;;;;;;;16.23;3.10;;;7.90;99.90;;;;;;5086027;28;20059;-83
2023/03/25 02:54:03;;;;;;;12.70;3.10;;;8.00;99.90;;;;;;5054889;28;20051;-82
2023/03/25 02:56:31;;;;;;;17.30;3.55;;;8.00;99.90;;;;;;5069210;28;20517;-85
2023/03/25 02:58:59;;;;;;;20.50;3.15;;;7.90;99.90;;;;;;5090997;28;20053;-83
2023/03/25 03:01:26;;;;;;;12.65;2.95;;;7.90;99.90;;;;;;5068034;28;20062;-81
2023/03/25 03:03:55;;;;;;;22.73;3.75;;;7.90;99.90;;;;;;5077933;28;20048;-82
2023/03/25 03:06:23;;;;;;;16.17;3.83;;;7.90;99.90;;;;;;5075892;28;20032;-81
2023/03/25 03:08:49;;;;;;;13.57;3.33;;;7.90;99.90;;;;;;5076526;28;20401;-82
2023/03/25 03:11:19;;;;;;;22.02;3.20;;;7.90;99.90;;;;;;5081016;28;20032;-81
2023/03/25 03:14:22;;;;;;;23.00;3.10;;;7.80;99.90;;;;;;5070179;28;20044;-82
2023/03/25 03:16:50;;;;;;;19.38;3.50;;;7.80;99.90;;;;;;5068281;28;20040;-85
2023/03/25 03:19:22;;;;;;;16.50;3.58;;;7.80;99.90;;;;;;5072256;28;20059;-82
2023/03/25 03:22:13;;;;;;;19.23;3.85;;;7.80;99.90;;;;;;5071878;28;20055;-85
2023/03/25 03:24:55;;;;;;;26.98;3.60;;;7.80;99.90;;;;;;5061226;28;20515;-81
2023/03/25 03:27:33;;;;;;;10.48;2.75;;;7.80;99.90;;;;;;5078726;28;20048;-82
2023/03/25 03:30:16;;;;;;;20.90;3.70;;;7.80;99.90;;;;;;5075124;28;20072;-82
2023/03/25 03:32:56;;;;;;;21.75;3.72;;;7.80;99.90;;;;;;5063825;28;20106;-81
2023/03/25 03:35:48;;;;;;;13.77;2.13;;;7.80;99.90;;;;;;5087126;28;20547;-81
2023/03/25 03:38:16;;;;;;;15.45;3.03;;;7.80;99.90;;;;;;5069876;28;20039;-81
2023/03/25 03:40:47;;;;;;;15.85;3.00;;;7.70;99.90;;;;;;5073823;28;20052;-83
2023/03/25 03:43:20;;;;;;;14.38;3.25;;;7.80;99.90;;;;;;5068610;28;20560;-82
2023/03/25 03:45:51;;;;;;;14.43;3.72;;;7.70;99.90;;;;;;5054440;28;20044;-82
2023/03/25 03:48:39;;;;;;;19.83;3.30;;;7.70;99.90;;;;;;5079126;28;20173;-83
2023/03/25 03:51:20;;;;;;;18.20;4.18;;;7.70;99.90;;;;;;5061497;28;20052;-82
2023/03/25 03:54:11;;;;;;;16.08;3.28;;;7.80;99.90;;;;;;5068096;28;20101;-82
2023/03/25 03:56:45;;;;;;;18.60;3.90;;;7.80;99.90;;;;;;5072104;28;20060;-83
2023/03/25 03:59:22;;;;;;;20.95;2.83;;;7.80;99.90;;;;;;5073034;28;20670;-82
2023/03/25 04:01:52;;;;;;;15.32;3.63;;;7.70;99.90;;;;;;5057118;28;20043;-82
2023/03/25 04:04:25;;;;;;;24.85;3.67;;;7.70;99.90;;;;;;5068248;28;20040;-82
2023/03/25 04:07:03;;;;;;;16.80;3.78;;;7.70;99.90;;;;;;5066242;28;20047;-82
2023/03/25 04:09:39;;;;;;;17.67;3.88;;;7.70;99.90;;;;;;5055630;28;20044;-82
2023/03/25 04:12:15;;;;;;;19.60;3.90;;;7.70;99.90;;;;;;5086138;28;20083;-82
2023/03/25 04:14:42;;;;;;;18.25;3.05;;;7.70;99.90;;;;;;5062903;28;20049;-82
2023/03/25 04:17:07;;;;;;;15.38;3.65;;;7.70;99.90;;;;;;5064536;28;20060;-82
2023/03/25 04:19:33;;;;;;;20.30;3.38;;;7.80;99.90;;;;;;5065763;28;20043;-82
2023/03/25 04:22:00;;;;;;;18.52;3.42;;;7.70;99.90;;;;;;5082997;28;20058;-83
2023/03/25 04:24:30;;;;;;;18.08;4.75;;;7.70;99.90;;;;;;5067465;28;20119;-80
2023/03/25 04:27:02;;;;;;;17.92;3.40;;;7.80;99.90;;;;;;5076753;28;20133;-81
2023/03/25 04:29:31;;;;;;;18.90;4.22;;;7.70;99.90;;;;;;5062643;28;20048;-81
2023/03/25 04:31:57;;;;;;;16.33;3.83;;;7.80;99.90;;;;;;5075435;28;20048;-81
2023/03/25 04:34:23;;;;;;;24.10;4.65;;;7.70;99.90;;;;;;5079189;28;20040;-81
2023/03/25 04:36:49;;;;;;;22.63;4.57;;;7.70;99.90;;;;;;5054696;28;20047;-81
2023/03/25 04:39:16;;;;;;;15.55;3.20;;;7.70;99.90;;;;;;5069377;28;20495;-81
2023/03/25 04:41:43;;;;;;;18.27;3.60;;;7.70;99.90;;;;;;5071543;28;20465;-82
2023/03/25 04:44:09;;;;;;;16.13;3.97;;;7.70;99.90;;;;;;5079843;28;20040;-81
2023/03/25 04:46:36;;;;;;;18.58;4.47;;;7.70;99.90;;;;;;5086613;28;20060;-82
2023/03/25 04:49:12;;;;;;;15.65;3.17;;;7.70;99.90;;;;;;5054183;28;20052;-86
2023/03/25 04:51:40;;;;;;;;;;;7.70;99.90;;;;;;5061468;28;20176;-81
2023/03/25 04:54:06;;;;;;;14.90;3.35;;;7.70;99.90;;;;;;5063173;28;20011;-84
2023/03/25 04:56:32;;;;;;;15.77;3.67;;;7.70;99.90;;;;;;5075391;28;20126;-81
2023/03/25 04:58:58;;;;;;;9.98;3.90;;;7.70;99.90;;;;;;5074845;28;20055;-81
2023/03/25 05:01:31;;;;;;;20.55;5.13;;;7.70;99.90;;;;;;5073374;28;20054;-81
2023/03/25 05:04:05;;;;;;;20.35;4.07;;;7.70;99.90;;;;;;5091209;28;20044;-83
2023/03/25 05:06:40;;;;;;;14.95;3.83;;;7.70;99.90;;;;;;5074287;28;20058;-82
2023/03/25 05:09:10;;;;;;;21.05;4.63;;;7.70;99.90;;;;;;5091539;28;20052;-82
2023/03/25 05:11:38;;;;;;;19.15;4.53;;;7.80;99.90;;;;;;5090542;28;20078;-82
2023/03/25 05:14:09;;;;;;;19.83;3.85;;;7.80;99.90;;;;;;5056753;28;20056;-84
2023/03/25 05:16:35;;;;;;;15.77;4.05;;;7.70;99.90;;;;;;5071563;28;20112;-83
2023/03/25 05:19:02;;;;;;;21.55;4.97;;;7.70;99.90;;;;;;5070191;28;20047;-82
2023/03/25 05:21:30;;;;;;;27.42;4.65;;;7.70;99.90;;;;;;5068752;28;20098;-81
2023/03/25 05:23:57;;;;;;;25.15;4.82;;;7.70;99.90;;;;;;5062946;28;20175;-81
2023/03/25 05:26:24;;;;;;;20.85;4.03;;;7.70;99.90;;;;;;5080714;28;20036;-81
2023/03/25 05:28:50;;;;;;;20.42;5.15;;;7.70;99.90;;;;;;5045237;28;20056;-81
2023/03/25 05:31:17;;;;;;;17.08;3.47;;;7.70;99.90;;;;;;5072198;28;20139;-81
2023/03/25 05:33:42;;;;;;;19.02;4.22;;;7.80;99.90;;;;;;5071677;28;20043;-81
2023/03/25 05:36:15;;;;;;;20.17;3.63;;;7.70;99.90;;;;;;5074320;28;20035;-85
2023/03/25 05:38:42;;;;;;;19.27;4.32;;;7.70;99.90;;;;;;5087281;28;20072;-81
2023/03/25 05:41:15;;;;;;;15.05;3.55;;;7.70;99.90;;;;;;5062162;28;20432;-84
2023/03/25 05:43:45;;;;;;;16.42;4.63;;;7.70;99.90;;;;;;5065935;28;20176;-81
2023/03/25 05:46:11;;;;;;;13.70;4.00;;;7.70;99.90;;;;;;5052938;28;20050;-85
2023/03/25 05:48:40;;;;;;;13.43;4.30;;;7.70;99.90;;;;;;5068313;28;20048;-80
2023/03/25 05:51:14;;;;;;;22.35;3.83;;;7.70;99.90;;;;;;5052959;28;20581;-80
2023/03/25 05:53:48;;;;;;;24.45;5.35;;;7.60;99.90;;;;;;5065923;28;20091;-83
2023/03/25 05:56:16;;;;;;;17.00;4.40;;;7.60;99.90;;;;;;5089785;28;20052;-80
2023/03/25 05:58:43;;;;;;;21.98;4.40;;;7.60;99.90;;;;;;5082159;28;20375;-82
2023/03/25 06:01:15;;;;;;;15.80;3.42;;;7.60;99.90;;;;;;5072168;28;20043;-80
2023/03/25 06:03:43;;;;;;;15.95;3.65;;;7.70;99.90;;;;;;5087718;28;20040;-81
2023/03/25 06:06:12;;;;;;;21.65;3.95;;;7.70;99.90;;;;;;5066789;28;20055;-81
2023/03/25 06:08:42;;;;;;;24.02;4.47;;;7.70;99.90;;;;;;5083955;28;20097;-81
2023/03/25 06:11:09;;;;;;;17.50;3.95;;;7.70;99.90;;;;;;5085283;28;20059;-80
2023/03/25 06:13:37;;;;;;;16.13;4.30;;;7.70;99.90;;;;;;5091162;28;20075;-81
2023/03/25 06:16:07;;;;;;;21.58;4.85;;;7.80;99.90;;;;;;5068628;28;20053;-81
2023/03/25 06:18:37;;;;;;;16.33;4.18;;;7.80;99.90;;;;;;5068418;28;20051;-81
2023/03/25 06:21:04;;;;;;;20.25;4.18;;;7.80;99.90;;;;;;5068879;28;20048;-81
2023/03/25 06:23:34;;;;;;;16.83;4.38;;;7.80;99.90;;;;;;5074287;28;20056;-82
2023/03/25 06:26:00;;;;;;;18.52;3.78;;;7.80;99.90;;;;;;5065524;28;20067;-81
2023/03/25 06:28:26;;;;;;;18.15;4.25;;;7.80;99.90;;;;;;5070582;28;20047;-82
2023/03/25 06:30:52;;;;;;;11.05;3.33;;;7.80;99.90;;;;;;5068687;28;20039;-81
2023/03/25 06:33:20;;;;;;;26.75;4.22;;;7.80;99.90;;;;;;5058349;28;20093;-82
2023/03/25 06:35:53;;;;;;;23.98;4.60;;;7.80;99.90;;;;;;5071726;28;20071;-81
2023/03/25 06:38:20;;;;;;;21.88;4.20;;;7.80;99.90;;;;;;5060793;28;20402;-81
2023/03/25 06:40:46;;;;;;;16.85;3.78;;;7.80;99.90;;;;;;5052419;28;20039;-81
2023/03/25 06:43:12;;;;;;;21.00;3.97;;;7.70;99.90;;;;;;5074712;28;20515;-82
2023/03/25 06:45:38;;;;;;;13.55;3.13;;;7.80;99.90;;;;;;5048049;28;20059;-83
2023/03/25 06:48:04;;;;;;;20.48;3.53;;;7.80;99.90;;;;;;5057966;28;20431;-83
2023/03/25 06:50:31;;;;;;;18.35;4.05;;;7.80;99.90;;;;;;5067764;28;20113;-83
2023/03/25 06:52:57;;;;;;;18.55;4.25;;;7.80;99.90;;;;;;5058650;28;20060;-85
2023/03/25 06:55:23;;;;;;;14.30;3.42;;;7.90;99.90;;;;;;5052306;28;20048;-81
2023/03/25 06:57:48;;;;;;;15.25;2.60;;;7.80;99.90;;;;;;5082728;28;20485;-81
2023/03/25 07:00:19;;;;;;;18.00;3.00;;;7.70;99.90;;;;;;5053541;28;20137;-82
2023/03/25 07:02:45;;;;;;;25.95;4.35;;;7.70;99.90;;;;;;5070257;28;20088;-82
2023/03/25 07:05:11;;;;;;;15.65;3.35;;;7.70;99.90;;;;;;5057079;28;20073;-84
2023/03/25 07:07:37;;;;;;;14.57;3.35;;;7.70;99.90;;;;;;5053598;28;20614;-82
2023/03/25 07:10:03;;;;;;;19.10;3.63;;;7.90;99.90;;;;;;5087379;28;20048;-82
2023/03/25 07:12:29;;;;;;;19.77;4.13;;;8.00;99.90;;;;;;5072682;28;20157;-82
2023/03/25 07:14:56;;;;;;;32.30;3.85;;;8.20;99.90;;;;;;5062179;28;20444;-81
2023/03/25 07:17:22;;;;;;;15.90;2.80;;;8.20;99.90;;;;;;5071533;28;20059;-86
2023/03/25 07:19:49;;;;;;;21.88;3.55;;;8.20;99.90;;;;;;5057036;28;20054;-81
2023/03/25 07:22:15;;;;;;;19.63;3.38;;;8.30;99.90;;;;;;5057392;28;20448;-81
2023/03/25 07:24:41;;;;;;;21.13;3.13;;;8.30;99.90;;;;;;5062059;28;20044;-81
2023/03/25 07:27:10;;;;;;;14.90;2.83;;;8.40;99.90;;;;;;5066404;28;20052;-81
2023/03/25 07:29:36;;;;;;;21.10;4.38;;;8.40;99.90;;;;;;5055497;28;20123;-81
2023/03/25 07:32:01;;;;;;;21.17;3.33;;;8.40;99.90;;;;;;5061892;28;20130;-84
2023/03/25 07:34:27;;;;;;;16.85;3.60;;;8.40;99.90;;;;;;5061170;28;20051;-82
2023/03/25 07:36:53;;;;;;;19.65;2.85;;;8.30;99.90;;;;;;5088604;28;20043;-83
2023/03/25 07:39:18;;;;;;;20.17;2.72;;;8.30;99.90;;;;;;5038866;28;20044;-82
2023/03/25 07:41:46;;;;;;;22.88;3.55;;;8.20;99.90;;;;;;5071412;28;20035;-81
2023/03/25 07:44:13;;;;;;;16.30;2.90;;;8.20;99.90;;;;;;5056770;28;20443;-83
2023/03/25 07:46:38;;;;;;;12.82;2.42;;;8.20;99.90;;;;;;5067917;28;20044;-83
2023/03/25 07:49:04;;;;;;;26.15;3.72;;;8.00;99.90;;;;;;5083731;28;20051;-84
2023/03/25 07:51:32;;;;;;;28.02;3.55;;;8.00;99.90;;;;;;5059688;28;20063;-84
2023/03/25 07:53:57;;;;;;;16.63;3.38;;;8.00;99.90;;;;;;5070439;28;20501;-83
2023/03/25 07:56:23;;;;;;;28.48;3.08;;;7.90;99.90;;;;;;5049473;28;20050;-85
2023/03/25 07:58:49;;;;;;;11.63;2.53;;;7.90;99.90;;;;;;5057139;28;20784;-83
2023/03/25 08:01:14;;;;;;;25.17;3.53;;;7.90;99.90;;;;;;5048737;28;20113;-84
2023/03/25 08:03:40;;;;;;;22.00;2.97;;;7.90;99.90;;;;;;5047391;28;20052;-83
2023/03/25 08:06:07;;;;;;;19.92;2.65;;;8.00;99.90;;;;;;5067320;28;20053;-82
2023/03/25 08:08:33;;;;;;;15.13;3.13;;;8.00;99.90;;;;;;5071828;28;20051;-83
2023/03/25 08:10:59;;;;;;;21.55;2.47;;;8.00;99.90;;;;;;5055337;28;20143;-83
2023/03/25 08:13:25;;;;;;;10.88;2.00;;;8.10;99.90;;;;;;5072890;28;20051;-82
2023/03/25 08:15:51;;;;;;;13.48;2.22;;;8.10;99.90;;;;;;5072132;28;20043;-80
2023/03/25 08:18:17;;;;;;;13.52;1.92;;;8.10;99.90;;;;;;5068136;28;20105;-85
2023/03/25 08:20:42;;;;;;;9.40;2.15;;;8.00;99.90;;;;;;5060153;28;20048;-83
2023/03/25 08:23:09;;;;;;;30.08;9.52;;;7.90;99.90;;;;;;5056019;28;20067;-84
2023/03/25 08:25:36;;;;;;;21.95;9.23;;;7.90;99.90;;;;;;5042444;28;20075;-84
2023/03/25 08:28:03;;;;;;;37.42;13.05;;;7.90;99.90;;;;;;5068038;28;20079;-84
2023/03/25 08:30:29;;;;;;;17.08;2.70;;;7.80;99.90;;;;;;5042791;28;20198;-82
2023/03/25 08:32:55;;;;;;;21.27;3.83;;;7.90;99.90;;;;;;5070010;28;20406;-84
2023/03/25 08:35:22;;;;;;;13.98;3.58;;;8.00;99.90;;;;;;5036062;28;20687;-84
2023/03/25 08:37:49;;;;;;;19.50;2.75;;;8.20;99.90;;;;;;5062693;28;20043;-88
2023/03/25 08:40:18;;;;;;;16.02;2.83;;;8.20;99.90;;;;;;5059252;28;20056;-85
2023/03/25 08:42:45;;;;;;;24.02;3.33;;;8.30;99.90;;;;;;5065466;28;20189;-85
2023/03/25 08:45:12;;;;;;;16.90;2.50;;;8.40;99.90;;;;;;5066591;28;20105;-85
2023/03/25 08:47:38;;;;;;;17.95;2.78;;;8.40;99.90;;;;;;5054312;28;20044;-84
2023/03/25 08:50:05;;;;;;;20.02;3.17;;;8.50;99.90;;;;;;5082332;28;20554;-85
2023/03/25 08:52:30;;;;;;;23.55;4.70;;;8.50;99.90;;;;;;5066460;28;20048;-86
2023/03/25 08:54:56;;;;;;;22.23;2.60;;;8.50;99.90;;;;;;5064680;28;20040;-85
2023/03/25 08:57:22;;;;;;;20.33;3.08;;;8.50;99.90;;;;;;5056195;28;20040;-85
2023/03/25 08:59:49;;;;;;;26.35;3.72;;;8.70;99.90;;;;;;5059698;28;20059;-84
2023/03/25 09:02:14;;;;;;;16.45;2.97;;;8.70;99.90;;;;;;5043002;28;20054;-84
2023/03/25 09:04:40;;;;;;;20.17;3.70;;;8.80;99.90;;;;;;5056799;28;20032;-83
2023/03/25 09:07:09;;;;;;;24.52;3.83;;;8.90;99.90;;;;;;5045628;28;20128;-84
2023/03/25 09:09:39;;;;;;;21.50;3.70;;;9.00;99.90;;;;;;5055627;28;20052;-81
2023/03/25 09:12:06;;;;;;;16.17;2.33;;;9.20;99.90;;;;;;5072803;28;20052;-83
2023/03/25 09:14:32;;;;;;;21.25;3.10;;;9.20;99.90;;;;;;5055439;28;20127;-84
2023/03/25 09:16:58;;;;;;;19.05;2.75;;;9.00;99.90;;;;;;5055408;28;20512;-84
2023/03/25 09:19:25;;;;;;;12.15;2.70;;;8.80;99.90;;;;;;5071375;28;20048;-85
2023/03/25 09:21:51;;;;;;;23.08;3.60;;;8.80;99.90;;;;;;5055566;28;20056;-84
2023/03/25 09:24:16;;;;;;;18.55;2.00;;;8.80;99.90;;;;;;5070977;28;20055;-84
2023/03/25 09:26:42;;;;;;;12.82;2.80;;;8.70;99.90;;;;;;5052219;28;20170;-84
2023/03/25 09:29:08;;;;;;;19.98;2.60;;;8.70;99.90;;;;;;5066016;28;20417;-84
2023/03/25 09:31:34;;;;;;;25.35;3.38;;;8.60;99.90;;;;;;5038401;28;20109;-85
2023/03/25 09:34:00;;;;;;;15.38;2.72;;;8.60;99.90;;;;;;5041015;28;20054;-85
2023/03/25 09:36:26;;;;;;;17.80;2.60;;;8.70;99.90;;;;;;5055477;28;20147;-84
2023/03/25 09:38:52;;;;;;;17.25;2.78;;;8.60;99.90;;;;;;5038119;28;20126;-85
2023/03/25 09:41:35;;;;;;;18.48;3.67;;;8.60;99.90;;;;;;5038627;28;20048;-85
2023/03/25 09:44:10;;;;;;;20.00;2.88;;;8.60;99.90;;;;;;5087893;28;20766;-85
2023/03/25 09:46:38;;;;;;;16.17;2.70;;;8.60;99.90;;;;;;5055361;28;20127;-84
2023/03/25 09:49:11;;;;;;;13.45;2.58;;;8.60;99.90;;;;;;5048069;28;20576;-83
2023/03/25 09:51:40;;;;;;;17.70;2.80;;;8.60;99.90;;;;;;5051920;28;20048;-83
2023/03/25 09:54:25;;;;;;;14.57;2.33;;;8.70;99.90;;;;;;5071388;28;20043;-83
2023/03/25 09:56:53;;;;;;;17.23;2.42;;;8.60;99.90;;;;;;5087958;28;20052;-84
2023/03/25 09:59:22;;;;;;;54.33;21.90;;;8.50;99.90;;;;;;5053662;28;20048;-84
2023/03/25 10:02:06;;;;;;;25.95;9.98;;;8.40;99.90;;;;;;5048861;28;20410;-84
2023/03/25 10:04:49;;;;;;;19.70;6.10;;;8.50;99.90;;;;;;5058556;28;20052;-83
2023/03/25 10:07:27;;;;;;;13.52;2.42;;;8.40;99.90;;;;;;5061079;28;20051;-84
2023/03/25 10:10:31;;;;;;;14.43;2.63;;;8.40;99.90;;;;;;5058204;28;20063;-84
2023/03/25 10:13:31;;;;;;;25.90;3.70;;;8.50;99.90;;;;;;5047001;28;20054;-84
2023/03/25 10:16:28;;;;;;;15.15;2.63;;;8.70;99.90;;;;;;5076289;28;20382;-85
2023/03/25 10:19:18;;;;;;;17.25;3.22;;;8.70;99.90;;;;;;5065141;28;20056;-84
2023/03/25 10:22:03;;;;;;;22.55;3.35;;;8.70;99.90;;;;;;5081293;28;20048;-83
2023/03/25 10:24:59;;;;;;;16.60;3.10;;;8.70;99.90;;;;;;5051001;28;20494;-85
2023/03/25 10:27:37;;;;;;;17.17;4.03;;;8.60;99.90;;;;;;5035196;28;20063;-84
2023/03/25 10:30:09;;;;;;;20.10;3.38;;;8.60;99.90;;;;;;5062522;28;20489;-84
2023/03/25 10:32:52;;;;;;;11.85;2.38;;;8.60;99.90;;;;;;5052426;28;20054;-84
2023/03/25 10:35:29;;;;;;;12.95;2.42;;;8.60;99.90;;;;;;5052467;28;20056;-85
2023/03/25 10:38:01;;;;;;;17.42;2.70;;;8.60;99.90;;;;;;5054113;28;20392;-84
2023/03/25 10:40:43;;;;;;;22.52;4.32;;;8.70;99.90;;;;;;5089039;28;20497;-85
2023/03/25 10:43:31;;;;;;;14.95;2.33;;;8.70;99.90;;;;;;5054362;28;20059;-85
2023/03/25 10:46:04;;;;;;;17.27;3.30;;;8.80;99.90;;;;;;5082892;28;20052;-84
2023/03/25 10:48:31;;;;;;;16.67;3.38;;;8.80;99.90;;;;;;5068403;28;20063;-84
2023/03/25 10:51:08;;;;;;;21.42;3.30;;;8.80;99.90;;;;;;5057799;28;20548;-85
2023/03/25 10:53:35;;;;;;;16.30;2.78;;;8.90;99.90;;;;;;5074743;28;20375;-85
2023/03/25 10:56:12;;;;;;;12.60;2.28;;;8.90;99.90;;;;;;5041420;28;20044;-84
2023/03/25 10:58:40;;;;;;;11.55;2.28;;;8.90;99.90;;;;;;5056346;28;20044;-85
2023/03/25 11:01:16;;;;;;;9.70;2.78;;;9.00;99.90;;;;;;5057700;28;20493;-84
2023/03/25 11:03:43;;;;;;;14.82;2.60;;;9.00;99.90;;;;;;5068417;28;20075;-84
2023/03/25 11:06:25;;;;;;;15.05;2.60;;;9.00;99.90;;;;;;5050566;28;20044;-85
2023/03/25 11:09:12;;;;;;;11.05;2.22;;;9.00;99.90;;;;;;5054651;28;20452;-84
2023/03/25 11:11:40;;;;;;;19.98;3.38;;;9.10;99.90;;;;;;5055947;28;20051;-85
2023/03/25 11:14:06;;;;;;;14.88;2.60;;;9.10;99.90;;;;;;5054408;28;20053;-84
2023/03/25 11:16:35;;;;;;;15.15;2.35;;;9.00;99.90;;;;;;5053653;28;20052;-85
2023/03/25 11:19:03;;;;;;;11.10;1.88;;;9.00;99.90;;;;;;5071288;28;20442;-85
2023/03/25 11:21:34;;;;;;;16.80;2.15;;;9.10;99.90;;;;;;5056255;28;20043;-84
2023/03/25 11:24:00;;;;;;;11.45;2.05;;;9.10;99.90;;;;;;5073672;28;20044;-84
2023/03/25 11:26:37;;;;;;;13.57;2.10;;;9.10;99.90;;;;;;5091145;28;20040;-85
2023/03/25 11:29:07;;;;;;;23.55;3.28;;;9.10;99.90;;;;;;5073256;28;20048;-84
2023/03/25 11:31:35;;;;;;;19.30;2.63;;;9.00;99.90;;;;;;5091230;28;20048;-84
2023/03/25 11:34:10;;;;;;;11.13;2.00;;;9.20;99.90;;;;;;5073802;28;20048;-84
2023/03/25 11:36:58;;;;;;;12.32;1.83;;;9.30;99.90;;;;;;5073957;28;20051;-84
2023/03/25 11:39:26;;;;;;;17.67;2.72;;;9.40;99.90;;;;;;5056991;28;20051;-84
2023/03/25 11:41:52;;;;;;;16.77;2.55;;;9.40;99.90;;;;;;5057078;28;20461;-84
2023/03/25 11:44:29;;;;;;;16.30;2.53;;;9.50;99.90;;;;;;5037069;28;20044;-85
2023/03/25 11:47:07;;;;;;;15.18;2.38;;;9.70;99.90;;;;;;5068326;28;20047;-84
2023/03/25 11:49:37;;;;;;;16.85;2.08;;;9.70;99.90;;;;;;5091140;28;20109;-84
2023/03/25 11:52:16;;;;;;;12.15;1.75;;;9.70;99.90;;;;;;5043032;28;20052;-84
2023/03/25 11:54:44;;;;;;;11.88;2.65;;;9.70;99.90;;;;;;5090948;28;20134;-85
2023/03/25 11:57:18;;;;;;;12.57;2.58;;;9.50;99.90;;;;;;5039404;28;20533;-85
2023/03/25 11:59:56;;;;;;;17.98;2.10;;;9.20;99.90;;;;;;5055488;28;20047;-84
2023/03/25 12:02:37;;;;;;;16.50;2.60;;;9.10;99.90;;;;;;5073016;28;20121;-84
2023/03/25 12:05:12;;;;;;;10.48;1.60;;;9.20;99.90;;;;;;5055450;28;20129;-84
2023/03/25 12:07:47;;;;;;;10.32;2.30;;;9.20;99.90;;;;;;5055974;28;20058;-84
2023/03/25 12:10:26;;;;;;;8.93;2.17;;;9.30;99.90;;;;;;5060557;28;20056;-84
2023/03/25 12:13:04;;;;;;;11.43;1.65;;;9.30;99.90;;;;;;5079301;28;20040;-84
2023/03/25 12:15:41;;;;;;;18.65;2.15;;;9.60;99.90;;;;;;5048286;28;20043;-83
2023/03/25 12:18:49;;;;;;;13.63;2.20;;;9.70;99.90;;;;;;5043938;28;20159;-83
2023/03/25 12:21:38;;;;;;;9.68;1.63;;;9.90;99.90;;;;;;5037565;28;20060;-84
2023/03/25 12:24:07;;;;;;;8.10;1.30;;;10.00;99.90;;;;;;5044944;28;21785;-83
2023/03/25 12:26:44;;;;;;;8.93;1.45;;;10.30;99.90;;;;;;5054688;28;20044;-83
2023/03/25 12:29:12;;;;;;;8.75;1.50;;;10.40;99.90;;;;;;5083863;28;20047;-83
2023/03/25 12:32:17;;;;;;;7.55;1.52;;;10.60;99.90;;;;;;5071528;28;20055;-84
2023/03/25 12:35:21;;;;;;;6.30;1.40;;;11.50;99.90;;;;;;5030793;28;20063;-83
2023/03/25 12:38:05;;;;;;;9.23;1.60;;;12.40;99.90;;;;;;4993914;28;20053;-83
2023/03/25 12:41:13;;;;;;;7.35;1.40;;;12.00;99.90;;;;;;5044520;28;20060;-83
2023/03/25 12:43:52;;;;;;;11.60;2.05;;;11.60;99.90;;;;;;5017757;28;20063;-81
2023/03/25 12:46:36;;;;;;;4.90;1.20;;;11.80;99.90;;;;;;5051747;28;20511;-83
2023/03/25 12:49:29;;;;;;;10.00;2.10;;;11.60;99.90;;;;;;5048989;28;20101;-84
2023/03/25 12:52:32;;;;;;;11.27;2.08;;;11.30;99.90;;;;;;5053077;28;20052;-84
2023/03/25 12:56:04;;;;;;;11.82;2.40;;;11.00;99.90;;;;;;5063383;28;20048;-84
2023/03/25 12:58:45;;;;;;;5.57;1.65;;;10.80;99.90;;;;;;4961790;28;20093;-84
2023/03/25 13:01:29;;;;;;;12.00;1.98;;;11.30;99.90;;;;;;5057532;28;20404;-83
2023/03/25 13:04:03;;;;;;;10.07;1.55;;;11.60;99.90;;;;;;5088222;28;20151;-81
2023/03/25 13:06:41;;;;;;;5.97;1.38;;;12.20;99.90;;;;;;5087729;28;20040;-84
2023/03/25 13:09:17;;;;;;;7.35;1.58;;;13.00;99.90;;;;;;5090234;28;20070;-85
2023/03/25 13:12:03;;;;;;;12.73;1.52;;;12.80;99.90;;;;;;5072599;28;20055;-84